Time;durP1;ratioP1;P1;durP2;ratioP2;P2;SDS_P1;SDS_P2;PMS_P1;PMS_P2;Temp;Humidity;BMP_temperature;BMP_pressure;BME280_temperature;BME280_humidity;BME280_pressure;Samples;Min_cycle;Max_cycle;Signal;HPM_P1;HPM_P2
2023/07/02 00:01:07;;;;;;;12.10;4.10;;;;;;;15.96;100.00;101136.06;4971805;28;20218;-73
2023/07/02 00:03:32;;;;;;;9.90;3.87;;;;;;;16.50;100.00;101229.06;4973216;28;20183;-73
2023/07/02 00:05:58;;;;;;;11.13;4.70;;;;;;;15.48;100.00;101075.47;4974454;28;20187;-73
2023/07/02 00:08:23;;;;;;;13.53;3.57;;;;;;;16.45;100.00;101232.47;4992047;28;20815;-73
2023/07/02 00:10:49;;;;;;;14.97;5.00;;;;;;;16.15;100.00;101185.59;4976893;28;20210;-73
2023/07/02 00:13:15;;;;;;;11.70;5.10;;;;;;;15.84;100.00;101156.81;4976356;28;20204;-73
2023/07/02 00:15:41;;;;;;;12.07;5.60;;;;;;;15.73;100.00;101140.28;4982533;28;20649;-74
2023/07/02 00:18:06;;;;;;;14.03;5.40;;;;;;;15.60;100.00;101135.00;4974805;28;20469;-73
2023/07/02 00:20:37;;;;;;;12.10;5.20;;;;;;;15.27;100.00;101060.50;4974745;28;20809;-72
2023/07/02 00:23:08;;;;;;;11.83;5.67;;;;;;;16.31;100.00;101246.38;4972582;28;20190;-73
2023/07/02 00:25:34;;;;;;;13.13;5.40;;;;;;;15.48;100.00;101123.31;4974905;28;20447;-73
2023/07/02 00:27:59;;;;;;;12.90;6.07;;;;;;;15.24;100.00;101093.38;4984664;28;20460;-73
2023/07/02 00:30:25;;;;;;;15.73;5.80;;;;;;;16.04;100.00;101231.28;4977702;28;20260;-73
2023/07/02 00:32:50;;;;;;;16.10;5.73;;;;;;;14.76;100.00;101031.94;4972275;28;20198;-73
2023/07/02 00:35:16;;;;;;;17.13;5.93;;;;;;;15.03;100.00;101077.59;4977164;28;20194;-73
2023/07/02 00:37:41;;;;;;;16.87;6.30;;;;;;;15.64;100.00;101175.94;4973158;28;20585;-73
2023/07/02 00:40:07;;;;;;;14.93;7.10;;;;;;;16.07;100.00;101240.03;4974155;28;21138;-72
2023/07/02 00:42:32;;;;;;;16.23;6.77;;;;;;;16.04;100.00;101238.59;4973215;28;20197;-72
2023/07/02 00:45:02;;;;;;;16.60;6.00;;;;;;;16.10;100.00;101253.91;4977246;28;20438;-72
2023/07/02 00:47:28;;;;;;;19.30;7.47;;;;;;;16.16;100.00;101254.91;4976845;28;20186;-72
2023/07/02 00:49:54;;;;;;;21.07;7.70;;;;;;;15.17;100.00;101129.63;4993155;28;20539;-73
2023/07/02 00:52:20;;;;;;;19.00;6.73;;;;;;;14.58;100.00;101034.56;4976102;28;20450;-73
2023/07/02 00:54:46;;;;;;;18.20;6.77;;;;;;;15.25;100.00;101153.66;4982864;28;20340;-73
2023/07/02 00:57:12;;;;;;;16.47;7.23;;;;;;;14.56;100.00;101015.91;4989247;28;20552;-73
2023/07/02 00:59:38;;;;;;;15.73;6.97;;;;;;;14.85;100.00;101073.81;4988494;28;20213;-73
2023/07/02 01:02:05;;;;;;;23.10;6.53;;;;;;;15.56;100.00;101186.00;4979962;28;20206;-73
2023/07/02 01:04:31;;;;;;;16.30;6.70;;;;;;;15.99;100.00;101252.78;4974640;28;20820;-73
2023/07/02 01:06:59;;;;;;;16.50;7.00;;;;;;;14.54;100.00;101036.88;4974890;28;20525;-73
2023/07/02 01:09:26;;;;;;;14.53;6.77;;;;;;;15.87;100.00;101237.53;4977409;28;20465;-72
2023/07/02 01:12:02;;;;;;;15.50;7.37;;;;;;;14.46;100.00;101013.69;4992718;28;20556;-72
2023/07/02 01:14:33;;;;;;;19.23;7.67;;;;;;;15.85;100.00;101237.72;4978298;28;20467;-73
2023/07/02 01:17:00;;;;;;;18.47;6.83;;;;;;;15.41;100.00;101163.88;4977059;28;20461;-73
2023/07/02 01:19:43;;;;;;;20.50;8.77;;;;;;;14.84;100.00;101069.47;4976129;28;20464;-73
2023/07/02 01:22:10;;;;;;;18.60;6.90;;;;;;;15.66;100.00;101201.72;4979501;28;20445;-73
2023/07/02 01:24:37;;;;;;;18.90;7.53;;;;;;;14.47;100.00;101028.00;4976438;28;20445;-73
2023/07/02 01:27:02;;;;;;;18.73;6.70;;;;;;;15.06;100.00;101114.97;4976551;28;20450;-72
2023/07/02 01:29:31;;;;;;;19.10;7.20;;;;;;;15.23;100.00;101123.34;4975851;28;20475;-72
2023/07/02 01:31:57;;;;;;;17.50;7.20;;;;;;;15.70;100.00;101210.22;4977372;28;20452;-73
2023/07/02 01:34:23;;;;;;;22.53;7.70;;;;;;;15.66;100.00;101234.16;4974984;28;20446;-73
2023/07/02 01:36:48;;;;;;;15.77;7.50;;;;;;;14.28;100.00;100988.50;4977714;28;20445;-73
2023/07/02 01:39:14;;;;;;;25.10;8.80;;;;;;;15.10;100.00;101149.44;4977842;28;20214;-73
2023/07/02 01:41:45;;;;;;;21.20;7.60;;;;;;;14.61;100.00;101034.97;4975762;28;20182;-73
2023/07/02 01:44:11;;;;;;;21.47;7.83;;;;;;;14.54;100.00;101027.97;4976527;28;20196;-72
2023/07/02 01:46:36;;;;;;;21.80;8.67;;;;;;;15.25;100.00;101140.16;4982210;28;20445;-73
2023/07/02 01:49:02;;;;;;;17.93;7.23;;;;;;;14.75;100.00;101064.53;4988613;28;20206;-72
2023/07/02 01:51:27;;;;;;;22.73;8.90;;;;;;;14.13;100.00;100941.09;4983151;28;20229;-73
2023/07/02 01:53:52;;;;;;;18.10;8.53;;;;;;;15.79;100.00;101217.00;4973753;28;20611;-72
2023/07/02 01:56:18;;;;;;;20.13;8.90;;;;;;;15.75;100.00;101207.69;4977754;28;20670;-73
2023/07/02 01:58:44;;;;;;;28.70;9.00;;;;;;;15.58;100.00;101183.88;4975551;28;20571;-73
2023/07/02 02:01:10;;;;;;;23.10;7.50;;;;;;;15.77;100.00;101208.31;4972510;28;20213;-72
2023/07/02 02:03:35;;;;;;;26.27;9.07;;;;;;;15.26;100.00;101136.41;4973691;28;20652;-73
2023/07/02 02:06:01;;;;;;;23.83;7.70;;;;;;;15.62;100.00;101214.00;4973848;28;20232;-73
2023/07/02 02:08:26;;;;;;;24.20;9.63;;;;;;;15.54;100.00;101209.72;4974350;28;20296;-73
2023/07/02 02:10:51;;;;;;;23.90;10.00;;;;;;;15.62;100.00;101199.66;4974747;28;20210;-72
2023/07/02 02:13:17;;;;;;;34.37;8.40;;;;;;;15.14;100.00;101139.00;4990738;28;20276;-73
2023/07/02 02:15:42;;;;;;;23.27;8.90;;;;;;;15.63;100.00;101199.47;4974999;28;20557;-73
2023/07/02 02:18:08;;;;;;;23.03;8.70;;;;;;;15.09;100.00;101142.34;4973676;28;20219;-73
2023/07/02 02:20:33;;;;;;;24.60;8.93;;;;;;;15.46;100.00;101166.75;4974190;28;20229;-73
2023/07/02 02:22:58;;;;;;;18.83;8.53;;;;;;;15.00;100.00;101092.38;4972491;28;20545;-72
2023/07/02 02:25:24;;;;;;;24.70;9.00;;;;;;;14.75;100.00;101083.44;4974591;28;20186;-72
2023/07/02 02:27:50;;;;;;;22.93;8.60;;;;;;;15.48;100.00;101194.41;4975540;28;20218;-73
2023/07/02 02:30:15;;;;;;;21.10;8.67;;;;;;;14.55;100.00;101043.09;4975522;28;20234;-73
2023/07/02 02:32:40;;;;;;;28.63;9.53;;;;;;;15.38;100.00;101175.97;4972766;28;20197;-73
2023/07/02 02:35:07;;;;;;;16.13;7.60;;;;;;;15.50;100.00;101176.06;4977150;28;20204;-73
2023/07/02 02:37:34;;;;;;;18.30;7.97;;;;;;;15.48;100.00;101185.47;4975228;28;20995;-74
2023/07/02 02:39:59;;;;;;;25.70;8.80;;;;;;;15.56;100.00;101190.56;4973312;28;20453;-73
2023/07/02 02:42:25;;;;;;;24.30;9.40;;;;;;;15.24;100.00;101130.38;4976740;28;21087;-73
2023/07/02 02:44:51;;;;;;;24.00;8.60;;;;;;;14.89;100.00;101123.63;4988700;28;20338;-73
2023/07/02 02:47:16;;;;;;;20.33;8.47;;;;;;;14.64;100.00;101039.94;4973990;28;20251;-72
2023/07/02 02:49:42;;;;;;;23.87;8.17;;;;;;;15.28;100.00;101177.56;4989995;28;20244;-73
2023/07/02 02:52:07;;;;;;;29.00;8.83;;;;;;;14.16;100.00;100975.72;4975134;28;20193;-73
2023/07/02 02:54:32;;;;;;;21.67;8.10;;;;;;;15.36;100.00;101158.31;4971280;28;20189;-72
2023/07/02 02:56:58;;;;;;;24.07;9.77;;;;;;;14.55;100.00;101035.84;4972411;28;20204;-73
2023/07/02 02:59:23;;;;;;;31.30;9.03;;;;;;;15.37;100.00;101179.72;4973698;28;20218;-73
2023/07/02 03:01:50;;;;;;;25.63;9.87;;;;;;;14.92;100.00;101106.97;4975304;28;20256;-73
2023/07/02 03:04:15;;;;;;;23.80;9.27;;;;;;;14.26;100.00;100994.09;4972052;28;20194;-73
2023/07/02 03:06:41;;;;;;;29.30;9.27;;;;;;;15.24;100.00;101152.00;4973498;28;20448;-73
2023/07/02 03:09:06;;;;;;;24.27;9.57;;;;;;;15.25;100.00;101153.66;4971870;28;20217;-73
2023/07/02 03:11:32;;;;;;;26.87;9.30;;;;;;;14.20;100.00;100971.53;4972552;28;20210;-73
2023/07/02 03:13:57;;;;;;;22.07;9.20;;;;;;;14.48;100.00;101021.53;4973435;28;20194;-73
2023/07/02 03:16:22;;;;;;;23.33;9.47;;;;;;;14.52;100.00;101036.28;4988727;28;20194;-73
2023/07/02 03:18:48;;;;;;;27.33;10.03;;;;;;;14.34;100.00;101020.81;4967285;28;20228;-72
2023/07/02 03:21:13;;;;;;;23.07;9.30;;;;;;;14.15;100.00;100978.66;4970537;28;20186;-72
2023/07/02 03:23:39;;;;;;;27.00;9.27;;;;;;;14.64;100.00;101058.00;4970390;28;20635;-73
2023/07/02 03:26:04;;;;;;;22.17;9.23;;;;;;;15.02;100.00;101128.09;4973976;28;20201;-72
2023/07/02 03:28:30;;;;;;;26.87;10.13;;;;;;;14.60;100.00;101054.06;4973263;28;20214;-72
2023/07/02 03:30:55;;;;;;;29.10;9.43;;;;;;;14.58;100.00;101058.84;4974184;28;20246;-72
2023/07/02 03:33:21;;;;;;;24.97;9.33;;;;;;;14.69;100.00;101085.16;4975544;28;20197;-73
2023/07/02 03:35:46;;;;;;;25.27;9.17;;;;;;;14.63;100.00;101067.13;4975328;28;20557;-72
2023/07/02 03:38:11;;;;;;;23.83;9.80;;;;;;;14.73;100.00;101080.16;4973197;28;20209;-73
2023/07/02 03:40:37;;;;;;;27.13;8.97;;;;;;;14.19;100.00;101031.09;4975088;28;20189;-73
2023/07/02 03:43:02;;;;;;;24.77;9.57;;;;;;;15.26;100.00;101175.06;4977663;28;20658;-73
2023/07/02 03:45:27;;;;;;;24.73;9.40;;;;;;;14.56;100.00;101056.41;4976079;28;20205;-73
2023/07/02 03:47:53;;;;;;;22.00;8.80;;;;;;;14.44;100.00;101047.31;4976476;28;20300;-73
2023/07/02 03:50:18;;;;;;;24.47;8.57;;;;;;;15.28;100.00;101170.25;4977577;28;20693;-72
2023/07/02 03:52:44;;;;;;;20.63;8.20;;;;;;;15.18;100.00;101178.03;4973014;28;20198;-73
2023/07/02 03:55:09;;;;;;;22.87;8.87;;;;;;;15.28;100.00;101174.84;4976515;28;20191;-73
2023/07/02 03:57:35;;;;;;;26.90;9.33;;;;;;;14.38;100.00;101053.59;4991654;28;20664;-73
2023/07/02 04:00:00;;;;;;;26.33;9.33;;;;;;;14.60;100.00;101095.38;4977299;28;20237;-72
2023/07/02 04:02:26;;;;;;;23.93;9.83;;;;;;;15.35;100.00;101172.91;4975953;28;20193;-74
2023/07/02 04:04:51;;;;;;;29.00;8.77;;;;;;;14.72;100.00;101113.59;4981157;28;20185;-73
2023/07/02 04:07:16;;;;;;;24.37;7.67;;;;;;;15.32;100.00;101184.16;4979268;28;20192;-73
2023/07/02 04:09:42;;;;;;;19.00;7.47;;;;;;;15.28;100.00;101188.34;4980564;28;20198;-73
2023/07/02 04:12:07;;;;;;;22.97;8.43;;;;;;;13.90;100.00;100965.13;4975246;28;20182;-73
2023/07/02 04:14:33;;;;;;;20.63;8.10;;;;;;;15.23;100.00;101171.97;4991083;28;20197;-73
2023/07/02 04:16:58;;;;;;;27.83;8.90;;;;;;;14.36;100.00;101056.50;4979613;28;20251;-73
2023/07/02 04:19:24;;;;;;;23.37;8.60;;;;;;;14.55;100.00;101089.84;4980748;28;20217;-72
2023/07/02 04:21:49;;;;;;;24.83;8.93;;;;;;;14.02;100.00;100995.72;4977106;28;20655;-73
2023/07/02 04:24:14;;;;;;;23.20;8.50;;;;;;;14.87;100.00;101125.72;4975875;28;20198;-72
2023/07/02 04:26:42;;;;;;;24.53;8.53;;;;;;;15.25;100.00;101189.63;4976567;28;20657;-73
2023/07/02 04:29:09;;;;;;;30.00;8.90;;;;;;;14.34;100.00;101017.28;4975881;28;20210;-73
2023/07/02 04:31:35;;;;;;;20.20;8.63;;;;;;;14.43;100.00;101049.19;4979394;28;20551;-73
2023/07/02 04:34:00;;;;;;;18.30;7.47;;;;;;;14.80;100.00;101106.03;4976111;28;21054;-73
2023/07/02 04:36:26;;;;;;;23.80;8.80;;;;;;;14.69;100.00;101117.53;4974884;28;20655;-73
2023/07/02 04:38:51;;;;;;;19.40;9.30;;;;;;;14.54;100.00;101063.88;4989620;28;24323;-73
2023/07/02 04:41:18;;;;;;;23.43;8.50;;;;;;;15.37;100.00;101204.06;4976615;28;20206;-72
2023/07/02 04:43:45;;;;;;;25.33;8.90;;;;;;;15.06;100.00;101158.19;4974194;28;20192;-73
2023/07/02 04:46:12;;;;;;;22.03;8.67;;;;;;;15.14;100.00;101161.44;4975023;28;20520;-73
2023/07/02 04:48:38;;;;;;;21.83;7.40;;;;;;;14.34;100.00;101031.59;4973656;28;20484;-72
2023/07/02 04:51:03;;;;;;;23.50;8.50;;;;;;;15.53;100.00;101234.28;4978217;28;20570;-73
2023/07/02 04:53:28;;;;;;;19.90;8.27;;;;;;;14.78;100.00;101091.09;4975526;28;20784;-72
2023/07/02 04:55:54;;;;;;;30.87;9.40;;;;;;;15.55;100.00;101233.00;4976778;28;20244;-73
2023/07/02 04:58:20;;;;;;;24.20;8.60;;;;;;;14.73;100.00;101126.06;4974889;28;20217;-73
2023/07/02 05:00:45;;;;;;;20.03;8.13;;;;;;;15.69;100.00;101241.03;4974990;28;20633;-73
2023/07/02 05:03:11;;;;;;;20.37;8.20;;;;;;;15.19;100.00;101189.66;4972733;28;20194;-73
2023/07/02 05:05:36;;;;;;;21.33;8.77;;;;;;;15.00;100.00;101153.66;4969293;28;20224;-72
2023/07/02 05:08:04;;;;;;;22.03;8.43;;;;;;;14.89;100.00;101136.28;4973485;28;20214;-72
2023/07/02 05:10:29;;;;;;;24.50;8.03;;;;;;;15.01;100.00;101147.22;4975862;28;20199;-73
2023/07/02 05:12:55;;;;;;;19.77;8.13;;;;;;;15.69;100.00;101254.56;4976529;28;20519;-73
2023/07/02 05:15:20;;;;;;;22.27;7.87;;;;;;;14.88;100.00;101119.28;4976844;28;20822;-73
2023/07/02 05:17:46;;;;;;;27.80;8.60;;;;;;;15.70;100.00;101242.69;4974369;28;20678;-73
2023/07/02 05:20:12;;;;;;;19.13;8.40;;;;;;;15.16;100.00;101136.91;4976161;28;20189;-73
2023/07/02 05:22:37;;;;;;;21.57;7.53;;;;;;;14.06;100.00;101002.34;4972306;28;20220;-74
2023/07/02 05:25:03;;;;;;;19.40;8.37;;;;;;;14.57;100.00;101079.63;4972552;28;20916;-73
2023/07/02 05:27:28;;;;;;;21.73;7.43;;;;;;;14.73;100.00;101113.38;4973791;28;20245;-74
2023/07/02 05:29:54;;;;;;;20.70;7.27;;;;;;;14.89;100.00;101137.13;4975640;28;20197;-73
2023/07/02 05:32:19;;;;;;;18.70;6.70;;;;;;;15.54;100.00;101242.19;4975436;28;20189;-73
2023/07/02 05:34:45;;;;;;;18.83;6.93;;;;;;;15.33;100.00;101202.00;4975390;28;20209;-74
2023/07/02 05:37:10;;;;;;;20.87;8.57;;;;;;;14.32;100.00;101038.25;4990398;28;20178;-74
2023/07/02 05:39:35;;;;;;;16.60;7.33;;;;;;;15.84;100.00;101281.25;4980396;28;20706;-74
2023/07/02 05:42:01;;;;;;;21.37;7.50;;;;;;;15.32;100.00;101197.66;4979689;28;20213;-73
2023/07/02 05:44:26;;;;;;;19.67;7.40;;;;;;;15.27;100.00;101217.22;4977811;28;20220;-73
2023/07/02 05:46:52;;;;;;;18.03;6.77;;;;;;;15.01;100.00;101168.81;4975530;28;20198;-73
2023/07/02 05:49:17;;;;;;;17.63;8.00;;;;;;;14.90;100.00;101159.56;4976844;28;20702;-73
2023/07/02 05:51:43;;;;;;;20.67;8.03;;;;;;;15.13;100.00;101183.28;4976823;28;20587;-72
2023/07/02 05:54:08;;;;;;;16.80;7.47;;;;;;;14.81;100.00;101166.25;4976152;28;20194;-73
2023/07/02 05:56:33;;;;;;;19.87;7.30;;;;;;;15.74;100.00;101303.41;4978961;28;20184;-73
2023/07/02 05:58:59;;;;;;;27.77;7.50;;;;;;;15.82;100.00;101311.22;4977261;28;20586;-73
2023/07/02 06:01:24;;;;;;;20.63;6.10;;;;;;;14.69;100.00;101112.16;4977885;28;20655;-73
2023/07/02 06:03:50;;;;;;;20.23;6.67;;;;;;;15.18;100.00;101215.03;4975494;28;20205;-73
2023/07/02 06:06:16;;;;;;;12.77;5.50;;;;;;;14.40;100.00;101090.09;4972963;28;20640;-73
2023/07/02 06:08:41;;;;;;;21.90;6.60;;;;;;;15.93;100.00;101378.13;4968439;28;20552;-74
2023/07/02 06:11:07;;;;;;;14.73;5.60;;;;;;;15.44;100.00;101268.88;4973379;28;20297;-75
2023/07/02 06:13:32;;;;;;;16.20;5.70;;;;;;;16.06;100.00;101354.72;4974430;28;20201;-75
2023/07/02 06:15:58;;;;;;;19.87;6.67;;;;;;;14.88;100.00;101180.56;4974064;28;20190;-74
2023/07/02 06:18:23;;;;;;;17.50;6.50;;;;;;;14.42;100.00;101120.41;4973740;28;20245;-75
2023/07/02 06:20:49;;;;;;;15.47;5.40;;;;;;;16.16;100.00;101372.09;4974546;28;20186;-75
2023/07/02 06:23:14;;;;;;;15.27;5.73;;;;;;;15.70;100.00;101310.28;4971312;28;20273;-75
2023/07/02 06:25:40;;;;;;;15.97;5.60;;;;;;;14.64;100.00;101123.63;4973601;28;20273;-73
2023/07/02 06:28:05;;;;;;;15.80;5.53;;;;;;;16.08;100.00;101366.13;4970419;28;20206;-76
2023/07/02 06:30:30;;;;;;;17.47;6.00;;;;;;;16.05;100.00;101362.00;4970629;28;20757;-73
2023/07/02 06:32:56;;;;;;;15.90;5.80;;;;;;;15.47;100.00;101268.44;4968032;28;20721;-72
2023/07/02 06:35:21;;;;;;;21.70;5.63;;;;;;;15.63;100.00;101309.50;4970004;28;20189;-73
2023/07/02 06:37:47;;;;;;;14.93;5.83;;;;;;;15.65;100.00;101293.84;4970227;28;20202;-73
2023/07/02 06:40:13;;;;;;;12.80;5.20;;;;;;;15.77;100.00;101311.06;4972452;28;20555;-73
2023/07/02 06:42:39;;;;;;;16.13;6.07;;;;;;;15.56;100.00;101304.97;4970556;28;20689;-72
2023/07/02 06:45:06;;;;;;;21.83;5.63;;;;;;;15.56;100.00;101298.72;4972076;28;20181;-72
2023/07/02 06:47:32;;;;;;;18.47;5.27;;;;;;;16.23;100.00;101408.06;4971923;28;20517;-73
2023/07/02 06:49:58;;;;;;;17.30;5.50;;;;;;;16.36;100.00;101439.56;4974561;28;20489;-73
2023/07/02 06:52:23;;;;;;;12.60;4.67;;;;;;;14.79;100.00;101214.28;4985940;28;20194;-72
2023/07/02 06:54:49;;;;;;;10.83;4.90;;;;;;;16.44;100.00;101474.50;4973655;28;20190;-74
2023/07/02 06:57:15;;;;;;;26.43;5.53;;;;;;;15.74;100.00;101381.84;4972963;28;20190;-72
2023/07/02 06:59:40;;;;;;;14.80;5.50;;;;;;;16.12;100.00;101425.00;4972063;28;20786;-72
2023/07/02 07:02:06;;;;;;;17.87;5.30;;;;;;;16.53;100.00;101490.47;4973587;28;20233;-72
2023/07/02 07:04:32;;;;;;;13.83;5.00;;;;;;;16.50;100.00;101492.56;4989364;28;20284;-73
2023/07/02 07:06:57;;;;;;;16.87;5.60;;;;;;;16.56;100.00;101490.84;4975959;28;20210;-72
2023/07/02 07:09:23;;;;;;;20.80;4.83;;;;;;;16.57;100.00;101488.94;4974457;28;20198;-72
2023/07/02 07:11:49;;;;;;;11.30;5.03;;;;;;;15.30;100.00;101302.44;4969735;28;20206;-72
2023/07/02 07:14:14;;;;;;;18.10;5.60;;;;;;;15.55;100.00;101376.31;4973865;28;20655;-71
2023/07/02 07:16:40;;;;;;;16.07;5.20;;;;;;;16.39;100.00;101517.63;4976010;28;20552;-73
2023/07/02 07:19:06;;;;;;;20.47;6.07;;;;;;;15.63;100.00;101390.63;4974084;28;20217;-71
2023/07/02 07:21:31;;;;;;;16.90;5.87;;;;;;;16.26;100.00;101477.16;4973777;28;20182;-73
2023/07/02 07:23:57;;;;;;;11.27;4.43;;;;;;;16.61;100.00;101523.50;4991045;28;20961;-73
2023/07/02 07:26:22;;;;;;;14.30;4.47;;;;;;;16.19;100.00;101466.38;4976105;28;20190;-73
2023/07/02 07:28:49;;;;;;;12.30;3.83;;;;;;;15.67;100.00;101386.41;4974132;28;20276;-72
2023/07/02 07:31:15;;;;;;;9.90;3.87;;;;;;;16.11;100.00;101482.06;4975266;28;20224;-74
2023/07/02 07:33:40;;;;;;;13.53;3.53;;;;;;;16.13;100.00;101493.50;4974886;28;20449;-74
2023/07/02 07:36:05;;;;;;;10.10;3.83;;;;;;;15.96;100.00;101449.91;4975975;28;20240;-73
2023/07/02 07:38:31;;;;;;;11.63;4.10;;;;;;;16.82;100.00;101590.03;4980697;28;20226;-74
2023/07/02 07:40:56;;;;;;;12.07;3.93;;;;;;;16.90;100.00;101559.94;4979438;28;20299;-74
2023/07/02 07:43:22;;;;;;;15.00;4.47;;;;;;;16.35;100.00;101488.53;4993163;28;20700;-74
2023/07/02 07:45:47;;;;;;;16.60;4.37;;;;;;;16.89;100.00;101544.75;4974736;28;20190;-75
2023/07/02 07:48:13;;;;;;;21.20;4.37;;;;;;;16.82;100.00;101552.09;4978011;28;20197;-75
2023/07/02 07:50:38;;;;;;;15.03;5.13;;;;;;;16.22;100.00;101443.44;4979396;28;20682;-75
2023/07/02 07:53:04;;;;;;;15.17;4.00;;;;;;;16.90;100.00;101562.66;4979104;28;20209;-73
2023/07/02 07:55:29;;;;;;;11.13;4.40;;;;;;;16.86;100.00;101514.53;4998031;28;20210;-75
2023/07/02 07:57:55;;;;;;;18.43;5.00;;;;;;;16.55;100.00;101461.25;4998060;28;20469;-75
2023/07/02 08:00:20;;;;;;;13.53;3.83;;;;;;;16.64;100.00;101479.72;4982076;28;20196;-75
2023/07/02 08:02:49;;;;;;;11.70;3.80;;;;;;;16.86;100.00;101539.75;4976788;28;20194;-75
2023/07/02 08:05:15;;;;;;;12.83;3.90;;;;;;;16.38;100.00;101464.56;4977574;28;20559;-75
2023/07/02 08:07:40;;;;;;;13.83;3.90;;;;;;;17.08;100.00;101555.59;4972326;28;20461;-74
2023/07/02 08:10:07;;;;;;;9.77;3.00;;;;;;;17.25;100.00;101575.63;4974146;28;20194;-76
2023/07/02 08:12:33;;;;;;;9.53;3.47;;;;;;;17.21;100.00;101579.84;4978537;28;20269;-73
2023/07/02 08:14:59;;;;;;;11.87;3.70;;;;;;;17.08;100.00;101411.94;4974169;28;20445;-74
2023/07/02 08:17:24;;;;;;;15.40;3.40;;;;;;;17.07;100.00;101133.88;4971883;28;20528;-75
2023/07/02 08:19:50;;;;;;;9.67;3.23;;;;;;;17.16;100.00;100704.22;4975441;28;20693;-74
2023/07/02 08:22:15;;;;;;;11.27;2.90;;;;;;;16.00;100.00;100393.34;4973809;28;20553;-77
2023/07/02 08:24:41;;;;;;;8.63;2.77;;;;;;;17.13;100.00;100544.84;4986478;28;20661;-75
2023/07/02 08:27:06;;;;;;;8.57;2.40;;;;;;;15.79;100.00;100313.75;4985892;28;20186;-76
2023/07/02 08:29:32;;;;;;;8.90;2.57;;;;;;;16.78;100.00;100499.91;4977157;28;20217;-74
2023/07/02 08:31:57;;;;;;;6.53;2.40;;;;;;;17.24;100.00;100573.72;4976862;28;20244;-76
2023/07/02 08:34:23;;;;;;;8.57;2.57;;;;;;;15.80;100.00;100334.34;4974960;28;20993;-75
2023/07/02 08:36:49;;;;;;;7.57;2.57;;;;;;;16.32;100.00;100420.66;4973631;28;20189;-74
2023/07/02 08:39:15;;;;;;;11.70;2.90;;;;;;;16.53;100.00;100431.78;4976981;28;20462;-74
2023/07/02 08:41:45;;;;;;;10.73;3.37;;;;;;;16.96;100.00;100515.06;4974813;28;20268;-75
2023/07/02 08:44:15;;;;;;;7.07;2.07;;;;;;;17.44;100.00;100556.88;4981166;28;20444;-74
2023/07/02 08:46:42;;;;;;;6.30;2.20;;;;;;;17.66;100.00;100570.47;4975896;28;20947;-73
2023/07/02 08:49:08;;;;;;;11.33;2.53;;;;;;;17.73;100.00;100581.13;4977241;28;21062;-74
2023/07/02 08:51:33;;;;;;;7.83;2.33;;;;;;;17.17;100.00;100524.28;4988042;28;20481;-75
2023/07/02 08:53:59;;;;;;;8.73;2.70;;;;;;;17.56;100.00;100548.63;4971794;28;20440;-75
2023/07/02 08:56:26;;;;;;;7.20;2.30;;;;;;;17.01;100.00;100462.81;4979017;28;20434;-74
2023/07/02 08:58:51;;;;;;;8.13;2.57;;;;;;;16.86;100.00;100458.81;4982253;28;20337;-74
2023/07/02 09:01:17;;;;;;;13.50;3.17;;;;;;;17.64;100.00;100597.00;4969882;28;20594;-73
2023/07/02 09:03:42;;;;;;;6.93;2.30;;;;;;;16.10;100.00;100395.38;4972946;28;20547;-74
2023/07/02 09:06:10;;;;;;;8.77;2.90;;;;;;;17.21;100.00;100592.34;4973609;28;20316;-73
2023/07/02 09:08:36;;;;;;;11.00;2.93;;;;;;;17.31;100.00;100611.47;4970680;28;20208;-74
2023/07/02 09:11:19;;;;;;;9.33;3.30;;;;;;;17.29;100.00;100613.63;4984307;28;20716;-75
2023/07/02 09:13:49;;;;;;;13.77;3.37;;;;;;;17.58;100.00;100622.44;4989926;28;20785;-73
2023/07/02 09:16:27;;;;;;;8.73;3.50;;;;;;;17.43;100.00;100619.50;4976096;28;20524;-74
2023/07/02 09:19:03;;;;;;;9.47;3.10;;;;;;;17.37;100.00;100624.84;4975356;28;20457;-73
2023/07/02 09:21:42;;;;;;;13.60;3.67;;;;;;;17.47;100.00;100624.16;4974257;28;20516;-73
2023/07/02 09:24:18;;;;;;;22.43;3.40;;;;;;;17.53;100.00;100625.06;4975217;28;20459;-74
2023/07/02 09:26:51;;;;;;;13.13;3.20;;;;;;;17.53;100.00;100631.34;4976311;28;20948;-75
2023/07/02 09:29:33;;;;;;;10.53;3.93;;;;;;;16.87;100.00;100501.09;4991362;28;20548;-74
2023/07/02 09:32:07;;;;;;;7.57;3.10;;;;;;;17.60;100.00;100625.72;4972665;28;20850;-73
2023/07/02 09:34:35;;;;;;;9.57;3.27;;;;;;;17.60;100.00;100625.72;4977662;28;20456;-73
2023/07/02 09:37:04;;;;;;;13.83;3.07;;;;;;;17.63;100.00;100620.59;4990596;28;20476;-75
2023/07/02 09:39:32;;;;;;;14.50;3.60;;;;;;;17.65;100.00;100638.50;4981463;28;21159;-73
2023/07/02 09:41:59;;;;;;;13.77;3.40;;;;;;;17.57;100.00;100626.22;4991013;28;20431;-74
2023/07/02 09:44:29;;;;;;;12.37;3.50;;;;;;;16.58;100.00;100499.56;4976098;28;20437;-73
2023/07/02 09:46:59;;;;;;;13.90;3.30;;;;;;;17.53;100.00;100622.34;4979150;28;20965;-75
2023/07/02 09:49:25;;;;;;;10.73;3.40;;;;;;;16.48;100.00;100468.50;4974191;28;20457;-74
2023/07/02 09:51:51;;;;;;;8.43;3.57;;;;;;;17.58;100.00;100644.13;4975784;28;20450;-73
2023/07/02 09:54:19;;;;;;;8.83;2.70;;;;;;;16.81;100.00;100483.16;4973032;28;20831;-74
2023/07/02 09:56:46;;;;;;;8.00;2.43;;;;;;;17.82;100.00;100623.88;4988759;28;20189;-74
2023/07/02 09:59:12;;;;;;;11.03;2.80;;;;;;;16.33;100.00;100384.38;4987929;28;20477;-76
2023/07/02 10:01:38;;;;;;;13.67;2.73;;;;;;;17.29;100.00;100518.75;4974539;28;20433;-75
2023/07/02 10:04:11;;;;;;;6.37;1.80;;;;;;;16.60;100.00;100460.31;4976318;28;20655;-76
2023/07/02 10:06:48;;;;;;;9.40;2.13;;;;;;;17.95;100.00;100640.84;4966040;28;20446;-74
2023/07/02 10:09:13;;;;;;;9.53;2.27;;;;;;;18.04;100.00;100650.19;4971984;28;20464;-76
2023/07/02 10:11:39;;;;;;;12.10;2.60;;;;;;;17.57;100.00;100590.97;4977041;28;20520;-76
2023/07/02 10:14:04;;;;;;;10.73;2.20;;;;;;;17.60;100.00;100596.69;4969616;28;20277;-75
2023/07/02 10:16:31;;;;;;;6.20;1.67;;;;;;;16.68;100.00;100403.03;4970791;28;20650;-74
2023/07/02 10:19:17;;;;;;;9.67;2.70;;;;;;;18.20;100.00;100643.06;4975288;28;20217;-75
2023/07/02 10:21:45;;;;;;;7.07;2.20;;;;;;;17.86;100.00;100555.56;4970151;28;20543;-76
2023/07/02 10:24:15;;;;;;;13.13;3.03;;;;;;;18.40;100.00;100639.72;4974590;28;20433;-79
2023/07/02 10:27:00;;;;;;;11.40;2.87;;;;;;;18.03;100.00;100616.00;4973609;28;21252;-77
2023/07/02 10:29:27;;;;;;;13.70;3.80;;;;;;;18.10;100.00;100622.03;4987730;28;20988;-76
2023/07/02 10:31:54;;;;;;;8.30;2.67;;;;;;;17.93;100.00;100597.66;4978680;28;20477;-75
2023/07/02 10:34:33;;;;;;;9.70;3.40;;;;;;;18.01;100.00;100648.78;4974774;28;20441;-76
2023/07/02 10:37:03;;;;;;;11.97;2.93;;;;;;;17.29;100.00;100559.41;4973621;28;20436;-78
2023/07/02 10:39:32;;;;;;;13.50;4.07;;;;;;;17.58;100.00;100642.22;4971106;28;20486;-73
2023/07/02 10:42:08;;;;;;;9.27;3.17;;;;;;;17.68;100.00;100663.25;4979791;28;20455;-75
2023/07/02 10:44:35;;;;;;;7.23;2.40;;;;;;;17.95;100.00;100681.56;4975315;28;20447;-75
2023/07/02 10:47:03;;;;;;;9.87;2.70;;;;;;;17.11;100.00;100546.97;4977421;28;20449;-75
2023/07/02 10:49:33;;;;;;;9.20;2.70;;;;;;;18.05;100.00;100668.94;4967738;28;21191;-75
2023/07/02 10:52:03;;;;;;;8.40;2.83;;;;;;;17.28;100.00;100582.97;4970532;28;20476;-77
2023/07/02 10:54:58;;;;;;;6.90;1.70;;;;;;;17.58;100.00;100627.84;4971226;28;20477;-77
2023/07/02 10:57:24;;;;;;;8.53;1.90;;;;;;;16.73;100.00;100543.09;4959312;28;21033;-75
2023/07/02 10:59:49;;;;;;;5.47;1.97;;;;;;;16.89;100.00;100539.63;4989170;28;20531;-77
2023/07/02 11:02:15;;;;;;;5.20;2.03;;;;;;;16.96;100.00;100561.09;4971870;28;20187;-75
2023/07/02 11:04:41;;;;;;;12.17;2.73;;;;;;;17.74;100.00;100648.69;4975251;28;20186;-77
2023/07/02 11:07:06;;;;;;;5.03;1.90;;;;;;;17.83;100.00;100671.63;4988260;28;20795;-76